createdAt,value
2023-05-07T00:04:00.487Z,13.90
2023-05-07T00:08:02.633Z,13.89
2023-05-07T00:12:04.755Z,13.82
2023-05-07T00:16:06.837Z,13.84
2023-05-07T00:20:09.480Z,13.90
2023-05-07T00:24:11.643Z,13.91
2023-05-07T00:28:13.716Z,13.94
2023-05-07T00:32:16.028Z,14.00
2023-05-07T00:36:18.221Z,14.04
2023-05-07T00:40:20.476Z,14.06
2023-05-07T00:44:22.476Z,14.10
2023-05-07T00:48:25.876Z,14.13
2023-05-07T00:52:28.797Z,14.09
2023-05-07T00:56:31.306Z,13.96
2023-05-07T01:00:33.407Z,13.78
2023-05-07T01:04:36.211Z,13.65
2023-05-07T01:08:40.708Z,13.54
2023-05-07T01:12:44.486Z,13.57
2023-05-07T01:16:47.231Z,13.57
2023-05-07T01:20:49.554Z,13.56
2023-05-07T01:24:51.919Z,13.54
2023-05-07T01:28:54.529Z,13.53
2023-05-07T01:33:05.195Z,13.49
2023-05-07T01:37:07.669Z,13.57
2023-05-07T01:41:09.726Z,13.63
2023-05-07T01:45:12.596Z,13.67
2023-05-07T01:49:15.298Z,13.69
2023-05-07T01:53:17.367Z,13.66
2023-05-07T01:57:19.413Z,13.64
2023-05-07T02:01:21.705Z,13.62
2023-05-07T02:05:25.271Z,13.51
2023-05-07T02:09:39.243Z,13.42
2023-05-07T02:13:42.704Z,13.37
2023-05-07T02:18:05.525Z,13.27
2023-05-07T02:22:08.575Z,13.26
2023-05-07T02:26:11.992Z,13.28
2023-05-07T02:30:14.999Z,13.26
2023-05-07T02:34:18.224Z,13.18
2023-05-07T02:38:20.420Z,13.04
2023-05-07T02:42:22.501Z,12.99
2023-05-07T02:46:24.629Z,13.07
2023-05-07T02:50:34.591Z,13.14
2023-05-07T02:54:37.062Z,13.20
2023-05-07T02:58:45.491Z,13.15
2023-05-07T03:02:49.013Z,13.08
2023-05-07T03:06:51.208Z,13.03
2023-05-07T03:10:53.300Z,13.00
2023-05-07T03:14:55.335Z,12.95
2023-05-07T03:18:57.435Z,12.80
2023-05-07T03:22:59.753Z,12.72
2023-05-07T03:27:02.098Z,12.77
2023-05-07T03:31:05.143Z,12.81
2023-05-07T03:35:08.223Z,12.82
2023-05-07T03:39:10.437Z,12.84
2023-05-07T03:43:15.672Z,12.89
2023-05-07T03:47:22.335Z,12.89
2023-05-07T03:51:24.574Z,12.74
2023-05-07T03:55:26.795Z,12.55
2023-05-07T03:59:33.887Z,12.62
2023-05-07T04:03:36.226Z,12.68
2023-05-07T04:07:38.983Z,12.73
2023-05-07T04:11:41.656Z,12.76
2023-05-07T04:15:47.390Z,12.67
2023-05-07T04:19:51.835Z,12.68
2023-05-07T04:23:54.502Z,12.73
2023-05-07T04:27:58.047Z,12.80
2023-05-07T04:32:02.746Z,12.83
2023-05-07T04:36:05.677Z,12.93
2023-05-07T04:40:12.856Z,13.00
2023-05-07T04:44:15.710Z,13.02
2023-05-07T04:48:20.209Z,13.06
2023-05-07T04:52:23.796Z,13.10
2023-05-07T04:56:29.855Z,13.22
2023-05-07T05:00:32.674Z,13.32
2023-05-07T05:04:36.121Z,13.38
2023-05-07T05:08:38.437Z,13.51
2023-05-07T05:12:41.206Z,13.40
2023-05-07T05:16:43.341Z,13.35
2023-05-07T05:20:46.304Z,13.44
2023-05-07T05:24:48.696Z,13.60
2023-05-07T05:28:50.858Z,13.74
2023-05-07T05:32:55.902Z,13.83
2023-05-07T05:36:59.451Z,13.90
2023-05-07T05:41:01.626Z,14.12
2023-05-07T05:45:05.728Z,14.41
2023-05-07T05:49:09.594Z,14.60
2023-05-07T05:53:13.418Z,14.83
2023-05-07T05:57:15.654Z,15.23
2023-05-07T06:01:19.527Z,15.49
2023-05-07T06:05:22.958Z,15.85
2023-05-07T06:09:29.396Z,16.08
2023-05-07T06:13:31.831Z,16.25
2023-05-07T06:17:34.055Z,16.20
2023-05-07T06:21:36.271Z,16.06
2023-05-07T06:25:38.818Z,15.99
2023-05-07T06:29:40.981Z,16.88
2023-05-07T06:33:50.292Z,19.88
2023-05-07T06:37:52.703Z,21.94
2023-05-07T06:41:59.264Z,20.17
2023-05-07T06:50:10.994Z,21.56
2023-05-07T06:54:13.899Z,22.20
2023-05-07T06:58:17.372Z,22.66
2023-05-07T07:02:19.642Z,22.49
2023-05-07T07:06:23.929Z,23.50
2023-05-07T07:10:26.120Z,22.33
2023-05-07T07:14:30.208Z,19.81
2023-05-07T07:18:32.437Z,18.58
2023-05-07T07:22:35.011Z,17.74
2023-05-07T07:26:37.087Z,17.82
2023-05-07T07:30:40.377Z,17.98
2023-05-07T07:34:42.505Z,17.92
2023-05-07T07:38:45.314Z,18.02
2023-05-07T07:42:48.309Z,18.07
2023-05-07T07:46:51.646Z,17.80
2023-05-07T07:50:54.344Z,17.37
2023-05-07T07:54:56.849Z,17.19
2023-05-07T07:58:59.554Z,17.08
2023-05-07T08:03:04.187Z,17.41
2023-05-07T08:07:11.281Z,17.58
2023-05-07T08:11:16.885Z,17.67
2023-05-07T08:15:19.353Z,17.92
2023-05-07T08:19:22.725Z,18.54
2023-05-07T08:23:25.495Z,18.91
2023-05-07T08:27:27.906Z,19.19
2023-05-07T08:31:30.131Z,19.47
2023-05-07T08:35:32.308Z,19.44
2023-05-07T08:39:34.423Z,19.81
2023-05-07T08:43:37.385Z,20.03
2023-05-07T08:47:52.470Z,19.96
2023-05-07T08:51:56.770Z,19.88
2023-05-07T08:56:00.373Z,19.68
2023-05-07T09:00:08.180Z,19.43
2023-05-07T09:04:13.834Z,19.47
2023-05-07T09:08:17.475Z,19.49
2023-05-07T09:12:22.360Z,19.93
2023-05-07T09:16:25.242Z,20.16
2023-05-07T09:20:27.351Z,20.28
2023-05-07T09:24:31.884Z,20.45
2023-05-07T09:28:34.185Z,20.61
2023-05-07T09:32:39.234Z,20.74
2023-05-07T09:36:43.745Z,20.66
2023-05-07T09:40:47.955Z,20.67
2023-05-07T09:44:51.513Z,20.69
2023-05-07T09:49:03.383Z,20.67
2023-05-07T09:53:10.912Z,20.70
2023-05-07T09:57:14.812Z,20.62
2023-05-07T10:01:23.001Z,20.56
2023-05-07T10:05:27.014Z,20.51
2023-05-07T10:09:32.240Z,20.42
2023-05-07T10:13:38.795Z,20.45
2023-05-07T10:17:43.743Z,20.53
2023-05-07T10:21:55.161Z,20.67
2023-05-07T10:26:00.954Z,20.61
2023-05-07T10:30:33.141Z,20.48
2023-05-07T10:34:44.099Z,20.38
2023-05-07T10:38:47.520Z,20.51
2023-05-07T10:43:01.389Z,20.32
2023-05-07T10:47:10.980Z,20.33
2023-05-07T10:51:23.012Z,20.32
2023-05-07T10:55:32.542Z,20.60
2023-05-07T10:59:46.109Z,20.84
2023-05-07T11:04:25.211Z,21.01
2023-05-07T11:08:57.923Z,21.03
2023-05-07T11:13:07.376Z,21.28
2023-05-07T11:17:21.728Z,21.57
2023-05-07T11:21:40.041Z,21.58
2023-05-07T11:26:12.501Z,21.81
2023-05-07T11:30:21.633Z,21.55
2023-05-07T11:34:26.496Z,21.87
2023-05-07T11:38:38.232Z,22.28
2023-05-07T11:42:43.332Z,22.33
2023-05-07T11:46:46.204Z,22.34
2023-05-07T11:51:05.933Z,22.57
2023-05-07T11:55:08.962Z,22.66
2023-05-07T11:59:11.203Z,22.75
2023-05-07T12:03:13.271Z,22.49
2023-05-07T12:07:16.310Z,22.63
2023-05-07T12:11:24.804Z,22.96
2023-05-07T12:15:26.848Z,22.81
2023-05-07T12:19:30.238Z,22.41
2023-05-07T12:23:32.552Z,22.41
2023-05-07T12:27:38.124Z,22.59
2023-05-07T12:31:43.620Z,22.47
2023-05-07T12:35:45.730Z,22.32
2023-05-07T12:40:04.078Z,22.77
2023-05-07T12:44:06.542Z,22.60
2023-05-07T12:48:11.438Z,22.26
2023-05-07T12:52:14.275Z,21.96
2023-05-07T12:56:16.933Z,21.73
2023-05-07T13:00:32.740Z,21.59
2023-05-07T13:04:34.970Z,21.79
2023-05-07T13:08:41.200Z,21.99
2023-05-07T13:12:43.400Z,21.80
2023-05-07T13:16:45.559Z,21.61
2023-05-07T13:20:47.667Z,21.87
2023-05-07T13:24:49.679Z,21.78
2023-05-07T13:28:52.174Z,21.62
2023-05-07T13:32:56.801Z,21.82
2023-05-07T13:36:58.839Z,21.83
2023-05-07T13:41:00.937Z,21.57
2023-05-07T13:45:06.292Z,21.34
2023-05-07T13:49:08.313Z,21.25
2023-05-07T13:53:10.336Z,21.21
2023-05-07T13:57:12.329Z,21.24
2023-05-07T14:01:14.382Z,21.18
2023-05-07T14:05:16.460Z,21.26
2023-05-07T14:09:18.453Z,21.41
2023-05-07T14:13:20.715Z,21.30
2023-05-07T14:17:24.154Z,21.41
2023-05-07T14:21:26.367Z,21.49
2023-05-07T14:25:28.368Z,21.69
2023-05-07T14:29:30.551Z,21.66
2023-05-07T14:33:32.867Z,21.99
2023-05-07T14:37:35.006Z,22.10
2023-05-07T14:41:37.020Z,22.28
2023-05-07T14:45:39.274Z,22.41
2023-05-07T14:49:41.937Z,22.46
2023-05-07T14:53:44.079Z,22.36
2023-05-07T14:57:46.203Z,22.42
2023-05-07T15:01:49.098Z,22.51
2023-05-07T15:05:54.167Z,22.27
2023-05-07T15:09:56.250Z,22.29
2023-05-07T15:13:58.332Z,22.49
2023-05-07T15:18:01.189Z,22.53
2023-05-07T15:22:03.563Z,22.23
2023-05-07T15:26:06.347Z,22.10
2023-05-07T15:30:11.164Z,21.80
2023-05-07T15:34:15.780Z,21.61
2023-05-07T15:38:17.884Z,21.50
2023-05-07T15:42:19.907Z,21.22
2023-05-07T15:46:27.006Z,21.18
2023-05-07T15:50:29.590Z,21.12
2023-05-07T15:54:31.771Z,21.05
2023-05-07T15:58:33.996Z,21.13
2023-05-07T16:02:37.368Z,21.19
2023-05-07T16:06:39.477Z,21.22
2023-05-07T16:10:41.513Z,21.15
2023-05-07T16:14:43.510Z,21.09
2023-05-07T16:18:45.567Z,21.00
2023-05-07T16:22:47.621Z,20.89
2023-05-07T16:26:49.932Z,20.78
2023-05-07T16:30:52.007Z,20.70
2023-05-07T16:34:54.011Z,20.72
2023-05-07T16:38:56.092Z,20.75
2023-05-07T16:42:58.198Z,20.74
2023-05-07T16:47:00.308Z,20.61
2023-05-07T16:51:02.404Z,20.52
2023-05-07T16:55:04.845Z,20.51
2023-05-07T16:59:07.337Z,20.51
2023-05-07T17:03:09.656Z,20.38
2023-05-07T17:07:12.499Z,20.25
2023-05-07T17:11:14.535Z,20.13
2023-05-07T17:15:16.689Z,20.08
2023-05-07T17:19:18.723Z,19.88
2023-05-07T17:23:20.914Z,19.73
2023-05-07T17:27:23.011Z,19.61
2023-05-07T17:31:25.066Z,19.45
2023-05-07T17:35:27.451Z,19.28
2023-05-07T17:39:29.663Z,19.15
2023-05-07T17:43:31.730Z,18.99
2023-05-07T17:47:35.576Z,18.87
2023-05-07T17:51:50.332Z,18.76
2023-05-07T17:55:55.963Z,18.78
2023-05-07T17:59:58.406Z,18.81
2023-05-07T18:04:00.673Z,18.81
2023-05-07T18:08:02.861Z,18.78
2023-05-07T18:12:05.011Z,18.69
2023-05-07T18:16:07.482Z,18.57
2023-05-07T18:20:11.673Z,18.48
2023-05-07T18:24:13.830Z,18.36
2023-05-07T18:28:15.923Z,18.28
2023-05-07T18:32:18.067Z,18.11
2023-05-07T18:36:20.155Z,17.96
2023-05-07T18:40:22.213Z,17.84
2023-05-07T18:44:24.798Z,17.73
2023-05-07T18:48:26.827Z,17.69
2023-05-07T18:52:29.543Z,17.66
2023-05-07T18:56:31.506Z,17.63
2023-05-07T19:00:33.470Z,17.58
2023-05-07T19:04:36.279Z,17.52
2023-05-07T19:08:38.353Z,17.40
2023-05-07T19:12:40.878Z,17.21
2023-05-07T19:16:42.990Z,17.06
2023-05-07T19:20:45.024Z,16.97
2023-05-07T19:24:47.081Z,16.92
2023-05-07T19:29:01.367Z,16.80
2023-05-07T19:33:12.163Z,16.57
2023-05-07T19:37:14.300Z,16.42
2023-05-07T19:41:16.269Z,16.33
2023-05-07T19:45:18.254Z,16.26
2023-05-07T19:49:21.329Z,16.25
2023-05-07T19:53:23.330Z,16.28
2023-05-07T19:57:25.364Z,16.31
2023-05-07T20:01:28.783Z,16.26
2023-05-07T20:05:30.830Z,16.11
2023-05-07T20:09:33.084Z,16.13
2023-05-07T20:13:35.123Z,16.05
2023-05-07T20:17:37.334Z,15.88
2023-05-07T20:21:39.347Z,15.77
2023-05-07T20:25:43.322Z,15.71
2023-05-07T20:29:45.525Z,15.63
2023-05-07T20:33:47.535Z,15.52
2023-05-07T20:37:49.597Z,15.49
2023-05-07T20:41:52.407Z,15.43
2023-05-07T20:46:02.554Z,15.35
2023-05-07T20:50:05.085Z,15.28
2023-05-07T20:54:08.629Z,15.16
2023-05-07T20:58:10.639Z,15.06
2023-05-07T21:02:12.713Z,14.98
2023-05-07T21:06:14.756Z,14.90
2023-05-07T21:10:16.776Z,14.86
2023-05-07T21:14:19.660Z,14.74
2023-05-07T21:18:21.757Z,14.71
2023-05-07T21:22:24.099Z,14.73
2023-05-07T21:26:26.426Z,14.77
2023-05-07T21:30:28.473Z,14.68
2023-05-07T21:34:30.616Z,14.49
2023-05-07T21:38:32.619Z,14.30
2023-05-07T21:42:34.673Z,14.18
2023-05-07T21:46:36.778Z,14.03
2023-05-07T21:50:39.080Z,13.97
2023-05-07T21:54:41.527Z,14.02
2023-05-07T21:58:43.614Z,14.01
2023-05-07T22:02:45.819Z,13.95
2023-05-07T22:06:47.865Z,13.98
2023-05-07T22:10:50.560Z,13.94
2023-05-07T22:14:52.629Z,13.89
2023-05-07T22:18:54.679Z,13.83
2023-05-07T22:22:56.896Z,13.85
2023-05-07T22:26:58.994Z,13.91
2023-05-07T22:31:01.002Z,13.90
2023-05-07T22:35:03.952Z,13.85
2023-05-07T22:39:08.155Z,13.80
2023-05-07T22:43:10.151Z,13.79
2023-05-07T22:47:12.140Z,13.76
2023-05-07T22:51:14.636Z,13.66
2023-05-07T22:55:16.813Z,13.59
2023-05-07T22:59:22.242Z,13.54
2023-05-07T23:03:24.353Z,13.47
2023-05-07T23:07:26.434Z,13.39
2023-05-07T23:11:28.581Z,13.24
2023-05-07T23:15:31.888Z,13.06
2023-05-07T23:19:33.946Z,12.95
2023-05-07T23:23:36.120Z,12.98
2023-05-07T23:27:38.269Z,13.01
2023-05-07T23:31:40.397Z,13.11
2023-05-07T23:35:42.587Z,13.05
2023-05-07T23:39:44.846Z,12.96
2023-05-07T23:43:46.839Z,12.75
2023-05-07T23:47:48.851Z,12.59
2023-05-07T23:51:50.873Z,12.42
2023-05-07T23:55:52.836Z,12.20
2023-05-07T23:59:54.864Z,12.06
